sensor_id;sensor_type;location;lat;lon;timestamp;pressure;altitude;pressure_sealevel;temperature
65765;BMP180;52915;53.718;19.946;2023-08-06T00:00:38;99490.60;;;17.70
65765;BMP180;52915;53.718;19.946;2023-08-06T00:06:05;99501.20;;;17.70
65765;BMP180;52915;53.718;19.946;2023-08-06T00:11:11;99511.40;;;17.70
65765;BMP180;52915;53.718;19.946;2023-08-06T00:16:16;99506.80;;;17.70
65765;BMP180;52915;53.718;19.946;2023-08-06T00:21:20;99484.80;;;17.70
65765;BMP180;52915;53.718;19.946;2023-08-06T00:26:24;99481.20;;;17.70
65765;BMP180;52915;53.718;19.946;2023-08-06T00:31:29;99479.00;;;17.70
65765;BMP180;52915;53.718;19.946;2023-08-06T00:36:33;99483.00;;;17.70
65765;BMP180;52915;53.718;19.946;2023-08-06T00:41:37;99469.40;;;17.70
65765;BMP180;52915;53.718;19.946;2023-08-06T00:46:41;99490.40;;;17.70
65765;BMP180;52915;53.718;19.946;2023-08-06T00:51:47;99493.60;;;17.70
65765;BMP180;52915;53.718;19.946;2023-08-06T00:56:51;99500.20;;;17.70
65765;BMP180;52915;53.718;19.946;2023-08-06T01:01:55;99500.20;;;17.72
65765;BMP180;52915;53.718;19.946;2023-08-06T01:07:21;99491.80;;;17.76
65765;BMP180;52915;53.718;19.946;2023-08-06T01:12:55;99514.00;;;17.70
65765;BMP180;52915;53.718;19.946;2023-08-06T01:18:02;99511.00;;;17.70
65765;BMP180;52915;53.718;19.946;2023-08-06T01:23:06;99407.20;;;17.64
65765;BMP180;52915;53.718;19.946;2023-08-06T01:33:47;99405.60;;;17.50
65765;BMP180;52915;53.718;19.946;2023-08-06T01:38:54;99438.00;;;17.50
65765;BMP180;52915;53.718;19.946;2023-08-06T01:43:58;99455.40;;;17.44
65765;BMP180;52915;53.718;19.946;2023-08-06T01:49:02;99481.80;;;17.40
65765;BMP180;52915;53.718;19.946;2023-08-06T01:54:07;99465.20;;;17.40
65765;BMP180;52915;53.718;19.946;2023-08-06T01:59:11;99438.40;;;17.40
65765;BMP180;52915;53.718;19.946;2023-08-06T02:04:16;99362.40;;;17.40
65765;BMP180;52915;53.718;19.946;2023-08-06T02:09:20;99282.00;;;17.40
65765;BMP180;52915;53.718;19.946;2023-08-06T02:14:24;99224.60;;;17.40
65765;BMP180;52915;53.718;19.946;2023-08-06T02:19:28;99202.00;;;17.40
65765;BMP180;52915;53.718;19.946;2023-08-06T02:24:33;99227.60;;;17.38
65765;BMP180;52915;53.718;19.946;2023-08-06T02:29:37;99215.60;;;17.30
65765;BMP180;52915;53.718;19.946;2023-08-06T02:34:44;99177.40;;;17.30
65765;BMP180;52915;53.718;19.946;2023-08-06T02:39:48;99186.00;;;17.30
65765;BMP180;52915;53.718;19.946;2023-08-06T02:44:53;99196.40;;;17.30
65765;BMP180;52915;53.718;19.946;2023-08-06T02:50:00;99179.80;;;17.30
65765;BMP180;52915;53.718;19.946;2023-08-06T02:55:06;99181.00;;;17.30
65765;BMP180;52915;53.718;19.946;2023-08-06T03:00:11;99164.40;;;17.30
65765;BMP180;52915;53.718;19.946;2023-08-06T03:05:15;99160.40;;;17.40
65765;BMP180;52915;53.718;19.946;2023-08-06T03:10:19;99185.40;;;17.40
65765;BMP180;52915;53.718;19.946;2023-08-06T03:15:24;99187.80;;;17.40
65765;BMP180;52915;53.718;19.946;2023-08-06T03:20:28;99131.20;;;17.40
65765;BMP180;52915;53.718;19.946;2023-08-06T03:25:35;99089.80;;;17.44
65765;BMP180;52915;53.718;19.946;2023-08-06T03:30:43;99080.80;;;17.40
65765;BMP180;52915;53.718;19.946;2023-08-06T03:35:48;99059.20;;;17.48
65765;BMP180;52915;53.718;19.946;2023-08-06T03:40:52;99043.20;;;17.48
65765;BMP180;52915;53.718;19.946;2023-08-06T03:45:56;99027.60;;;17.50
65765;BMP180;52915;53.718;19.946;2023-08-06T03:51:00;99035.40;;;17.50
65765;BMP180;52915;53.718;19.946;2023-08-06T03:56:06;99043.00;;;17.50
65765;BMP180;52915;53.718;19.946;2023-08-06T04:01:10;99056.60;;;17.60
65765;BMP180;52915;53.718;19.946;2023-08-06T04:06:15;99063.20;;;17.70
65765;BMP180;52915;53.718;19.946;2023-08-06T04:11:19;99052.60;;;17.80
65765;BMP180;52915;53.718;19.946;2023-08-06T04:16:26;99041.20;;;17.88
65765;BMP180;52915;53.718;19.946;2023-08-06T04:21:31;99006.60;;;17.94
65765;BMP180;52915;53.718;19.946;2023-08-06T04:26:35;99029.00;;;18.10
65765;BMP180;52915;53.718;19.946;2023-08-06T04:31:39;99009.60;;;18.20
65765;BMP180;52915;53.718;19.946;2023-08-06T04:36:43;99003.40;;;18.36
65765;BMP180;52915;53.718;19.946;2023-08-06T04:41:48;99002.80;;;18.50
65765;BMP180;52915;53.718;19.946;2023-08-06T04:46:53;98993.60;;;18.64
65765;BMP180;52915;53.718;19.946;2023-08-06T04:52:01;98985.60;;;18.80
65765;BMP180;52915;53.718;19.946;2023-08-06T04:57:06;98976.20;;;18.90
65765;BMP180;52915;53.718;19.946;2023-08-06T05:02:12;98974.80;;;19.02
65765;BMP180;52915;53.718;19.946;2023-08-06T05:07:17;98966.20;;;19.10
65765;BMP180;52915;53.718;19.946;2023-08-06T05:12:21;98955.60;;;19.20
65765;BMP180;52915;53.718;19.946;2023-08-06T05:17:25;98941.40;;;19.30
65765;BMP180;52915;53.718;19.946;2023-08-06T05:22:29;98931.20;;;19.32
65765;BMP180;52915;53.718;19.946;2023-08-06T05:27:33;98915.80;;;19.40
65765;BMP180;52915;53.718;19.946;2023-08-06T05:32:38;98904.80;;;19.40
65765;BMP180;52915;53.718;19.946;2023-08-06T05:37:42;98902.00;;;19.40
65765;BMP180;52915;53.718;19.946;2023-08-06T05:42:46;98897.80;;;19.40
65765;BMP180;52915;53.718;19.946;2023-08-06T05:47:51;98896.20;;;19.40
65765;BMP180;52915;53.718;19.946;2023-08-06T05:52:55;98897.40;;;19.30
65765;BMP180;52915;53.718;19.946;2023-08-06T05:58:03;98894.20;;;19.30
65765;BMP180;52915;53.718;19.946;2023-08-06T06:03:08;98896.20;;;19.24
65765;BMP180;52915;53.718;19.946;2023-08-06T06:08:12;98891.40;;;19.20
65765;BMP180;52915;53.718;19.946;2023-08-06T06:13:16;98881.00;;;19.20
65765;BMP180;52915;53.718;19.946;2023-08-06T06:18:21;98873.00;;;19.30
65765;BMP180;52915;53.718;19.946;2023-08-06T06:23:24;98852.40;;;19.40
65765;BMP180;52915;53.718;19.946;2023-08-06T06:28:29;98852.60;;;19.60
65765;BMP180;52915;53.718;19.946;2023-08-06T06:33:33;98843.00;;;19.70
65765;BMP180;52915;53.718;19.946;2023-08-06T06:38:38;98829.20;;;19.88
65765;BMP180;52915;53.718;19.946;2023-08-06T06:43:42;98820.00;;;20.00
65765;BMP180;52915;53.718;19.946;2023-08-06T06:48:47;98810.60;;;20.10
65765;BMP180;52915;53.718;19.946;2023-08-06T06:53:51;98806.40;;;20.20
65765;BMP180;52915;53.718;19.946;2023-08-06T06:58:55;98802.60;;;20.20
65765;BMP180;52915;53.718;19.946;2023-08-06T07:04:00;98795.20;;;20.12
65765;BMP180;52915;53.718;19.946;2023-08-06T07:09:08;98787.60;;;20.20
65765;BMP180;52915;53.718;19.946;2023-08-06T07:14:12;98774.20;;;20.30
65765;BMP180;52915;53.718;19.946;2023-08-06T07:19:18;98766.40;;;20.34
65765;BMP180;52915;53.718;19.946;2023-08-06T07:24:22;98758.00;;;20.40
65765;BMP180;52915;53.718;19.946;2023-08-06T07:29:27;98747.20;;;20.60
65765;BMP180;52915;53.718;19.946;2023-08-06T07:34:31;98731.60;;;20.70
65765;BMP180;52915;53.718;19.946;2023-08-06T07:39:35;98723.00;;;20.90
65765;BMP180;52915;53.718;19.946;2023-08-06T07:44:41;98732.60;;;21.00
65765;BMP180;52915;53.718;19.946;2023-08-06T07:49:46;98728.80;;;21.14
65765;BMP180;52915;53.718;19.946;2023-08-06T07:54:50;98712.40;;;21.40
65765;BMP180;52915;53.718;19.946;2023-08-06T07:59:54;98702.00;;;21.70
65765;BMP180;52915;53.718;19.946;2023-08-06T08:04:58;98694.40;;;21.90
65765;BMP180;52915;53.718;19.946;2023-08-06T08:10:05;98694.60;;;22.20
65765;BMP180;52915;53.718;19.946;2023-08-06T08:15:09;98693.40;;;22.40
65765;BMP180;52915;53.718;19.946;2023-08-06T08:20:16;98696.20;;;22.50
65765;BMP180;52915;53.718;19.946;2023-08-06T08:25:20;98680.00;;;22.70
65765;BMP180;52915;53.718;19.946;2023-08-06T08:30:24;98683.00;;;23.20
65765;BMP180;52915;53.718;19.946;2023-08-06T08:35:29;98676.20;;;23.58
65765;BMP180;52915;53.718;19.946;2023-08-06T08:40:41;98656.00;;;24.12
65765;BMP180;52915;53.718;19.946;2023-08-06T08:45:53;98651.60;;;24.96
65765;BMP180;52915;53.718;19.946;2023-08-06T08:51:04;98646.80;;;25.30
65765;BMP180;52915;53.718;19.946;2023-08-06T08:56:12;98645.80;;;25.40
65765;BMP180;52915;53.718;19.946;2023-08-06T09:01:17;98646.60;;;25.20
65765;BMP180;52915;53.718;19.946;2023-08-06T09:06:25;98641.40;;;25.10
65765;BMP180;52915;53.718;19.946;2023-08-06T09:11:37;98632.20;;;25.10
65765;BMP180;52915;53.718;19.946;2023-08-06T09:16:45;98624.80;;;25.20
65765;BMP180;52915;53.718;19.946;2023-08-06T09:21:51;98616.00;;;25.50
65765;BMP180;52915;53.718;19.946;2023-08-06T09:26:56;98605.40;;;25.66
65765;BMP180;52915;53.718;19.946;2023-08-06T09:32:02;98589.40;;;26.00
65765;BMP180;52915;53.718;19.946;2023-08-06T09:37:09;98572.00;;;26.44
65765;BMP180;52915;53.718;19.946;2023-08-06T09:42:17;98582.00;;;27.08
65765;BMP180;52915;53.718;19.946;2023-08-06T09:47:24;98580.00;;;27.40
65765;BMP180;52915;53.718;19.946;2023-08-06T09:52:29;98574.00;;;27.50
65765;BMP180;52915;53.718;19.946;2023-08-06T09:57:33;98551.40;;;27.86
65765;BMP180;52915;53.718;19.946;2023-08-06T10:02:39;98551.00;;;28.30
65765;BMP180;52915;53.718;19.946;2023-08-06T10:07:50;98547.60;;;28.78
65765;BMP180;52915;53.718;19.946;2023-08-06T10:13:21;98532.00;;;29.14
65765;BMP180;52915;53.718;19.946;2023-08-06T10:18:33;98523.80;;;29.30
65765;BMP180;52915;53.718;19.946;2023-08-06T10:23:56;98512.00;;;29.40
65765;BMP180;52915;53.718;19.946;2023-08-06T10:29:40;98511.40;;;29.50
65765;BMP180;52915;53.718;19.946;2023-08-06T10:34:59;98503.20;;;29.20
65765;BMP180;52915;53.718;19.946;2023-08-06T10:40:10;98506.40;;;29.10
65765;BMP180;52915;53.718;19.946;2023-08-06T10:45:51;98485.20;;;29.38
65765;BMP180;52915;53.718;19.946;2023-08-06T10:51:09;98501.20;;;29.70
65765;BMP180;52915;53.718;19.946;2023-08-06T10:56:24;98497.00;;;29.40
65765;BMP180;52915;53.718;19.946;2023-08-06T11:01:37;98484.20;;;29.60
65765;BMP180;52915;53.718;19.946;2023-08-06T11:06:56;98483.60;;;29.90
65765;BMP180;52915;53.718;19.946;2023-08-06T11:12:20;98478.40;;;29.54
65765;BMP180;52915;53.718;19.946;2023-08-06T11:17:37;98467.80;;;29.70
65765;BMP180;52915;53.718;19.946;2023-08-06T11:23:13;98461.80;;;29.90
65765;BMP180;52915;53.718;19.946;2023-08-06T11:28:35;98457.20;;;30.10
65765;BMP180;52915;53.718;19.946;2023-08-06T11:33:47;98447.80;;;30.50
65765;BMP180;52915;53.718;19.946;2023-08-06T11:39:04;98435.40;;;30.96
65765;BMP180;52915;53.718;19.946;2023-08-06T11:44:21;98443.00;;;31.20
65765;BMP180;52915;53.718;19.946;2023-08-06T11:55:06;98420.20;;;31.20
65765;BMP180;52915;53.718;19.946;2023-08-06T12:00:14;98413.80;;;31.34
65765;BMP180;52915;53.718;19.946;2023-08-06T12:05:23;98394.20;;;31.60
65765;BMP180;52915;53.718;19.946;2023-08-06T12:10:32;98390.40;;;31.64
65765;BMP180;52915;53.718;19.946;2023-08-06T12:15:37;98398.40;;;32.10
65765;BMP180;52915;53.718;19.946;2023-08-06T12:20:41;98385.20;;;31.80
65765;BMP180;52915;53.718;19.946;2023-08-06T12:25:46;98372.00;;;31.78
65765;BMP180;52915;53.718;19.946;2023-08-06T12:30:50;98373.00;;;32.10
65765;BMP180;52915;53.718;19.946;2023-08-06T12:35:58;98370.80;;;32.54
65765;BMP180;52915;53.718;19.946;2023-08-06T12:41:03;98370.60;;;32.40
65765;BMP180;52915;53.718;19.946;2023-08-06T12:46:09;98357.60;;;32.04
65765;BMP180;52915;53.718;19.946;2023-08-06T12:51:14;98325.80;;;32.00
65765;BMP180;52915;53.718;19.946;2023-08-06T12:56:19;98318.60;;;32.30
65765;BMP180;52915;53.718;19.946;2023-08-06T13:01:23;98328.20;;;32.70
65765;BMP180;52915;53.718;19.946;2023-08-06T13:06:27;98339.80;;;32.30
65765;BMP180;52915;53.718;19.946;2023-08-06T13:11:31;98335.80;;;31.80
65765;BMP180;52915;53.718;19.946;2023-08-06T13:16:38;98336.60;;;32.10
65765;BMP180;52915;53.718;19.946;2023-08-06T13:22:03;98315.60;;;32.60
65765;BMP180;52915;53.718;19.946;2023-08-06T13:27:08;98323.40;;;32.86
65765;BMP180;52915;53.718;19.946;2023-08-06T13:32:13;98326.20;;;33.10
65765;BMP180;52915;53.718;19.946;2023-08-06T13:37:17;98318.40;;;33.40
65765;BMP180;52915;53.718;19.946;2023-08-06T13:42:22;98295.80;;;33.30
65765;BMP180;52915;53.718;19.946;2023-08-06T13:47:26;98280.80;;;33.30
65765;BMP180;52915;53.718;19.946;2023-08-06T13:52:31;98273.60;;;33.40
65765;BMP180;52915;53.718;19.946;2023-08-06T13:57:35;98274.40;;;33.80
65765;BMP180;52915;53.718;19.946;2023-08-06T14:02:39;98269.60;;;34.10
65765;BMP180;52915;53.718;19.946;2023-08-06T14:07:44;98274.40;;;34.30
65765;BMP180;52915;53.718;19.946;2023-08-06T14:12:48;98252.80;;;34.30
65765;BMP180;52915;53.718;19.946;2023-08-06T14:18:16;98245.60;;;34.10
65765;BMP180;52915;53.718;19.946;2023-08-06T14:23:20;98242.80;;;33.80
65765;BMP180;52915;53.718;19.946;2023-08-06T14:28:25;98244.60;;;33.30
65765;BMP180;52915;53.718;19.946;2023-08-06T14:33:29;98263.40;;;32.80
65765;BMP180;52915;53.718;19.946;2023-08-06T14:38:34;98264.00;;;32.42
65765;BMP180;52915;53.718;19.946;2023-08-06T14:43:56;98279.00;;;32.20
65765;BMP180;52915;53.718;19.946;2023-08-06T14:49:00;98277.00;;;31.94
65765;BMP180;52915;53.718;19.946;2023-08-06T14:54:05;98260.20;;;31.90
65765;BMP180;52915;53.718;19.946;2023-08-06T14:59:09;98256.80;;;31.90
65765;BMP180;52915;53.718;19.946;2023-08-06T15:04:14;98256.00;;;32.20
65765;BMP180;52915;53.718;19.946;2023-08-06T15:09:18;98256.20;;;32.90
65765;BMP180;52915;53.718;19.946;2023-08-06T15:14:22;98261.80;;;33.20
65765;BMP180;52915;53.718;19.946;2023-08-06T15:19:27;98247.80;;;32.64
65765;BMP180;52915;53.718;19.946;2023-08-06T15:24:31;98260.60;;;32.04
65765;BMP180;52915;53.718;19.946;2023-08-06T15:29:36;98262.20;;;31.60
65765;BMP180;52915;53.718;19.946;2023-08-06T15:34:40;98271.00;;;33.12
65765;BMP180;52915;53.718;19.946;2023-08-06T15:39:45;98266.40;;;33.28
65765;BMP180;52915;53.718;19.946;2023-08-06T15:44:49;98289.80;;;32.10
65765;BMP180;52915;53.718;19.946;2023-08-06T15:49:55;98281.80;;;31.44
65765;BMP180;52915;53.718;19.946;2023-08-06T15:55:02;98302.80;;;30.96
65765;BMP180;52915;53.718;19.946;2023-08-06T16:00:10;98336.80;;;30.50
65765;BMP180;52915;53.718;19.946;2023-08-06T16:05:15;98364.80;;;29.78
65765;BMP180;52915;53.718;19.946;2023-08-06T16:10:20;98379.00;;;28.92
65765;BMP180;52915;53.718;19.946;2023-08-06T16:15:25;98383.20;;;28.40
65765;BMP180;52915;53.718;19.946;2023-08-06T16:20:30;98385.40;;;27.96
65765;BMP180;52915;53.718;19.946;2023-08-06T16:25:39;98376.80;;;27.60
65765;BMP180;52915;53.718;19.946;2023-08-06T16:30:48;98361.40;;;27.40
65765;BMP180;52915;53.718;19.946;2023-08-06T16:35:52;98360.80;;;28.66
65765;BMP180;52915;53.718;19.946;2023-08-06T16:40:57;98366.40;;;29.10
65765;BMP180;52915;53.718;19.946;2023-08-06T16:46:01;98369.20;;;29.70
65765;BMP180;52915;53.718;19.946;2023-08-06T16:51:06;98381.60;;;29.80
65765;BMP180;52915;53.718;19.946;2023-08-06T16:56:11;98390.40;;;29.10
65765;BMP180;52915;53.718;19.946;2023-08-06T17:01:16;98388.20;;;28.50
65765;BMP180;52915;53.718;19.946;2023-08-06T17:11:38;98375.20;;;27.38
65765;BMP180;52915;53.718;19.946;2023-08-06T17:16:43;98379.80;;;27.30
65765;BMP180;52915;53.718;19.946;2023-08-06T17:21:47;98388.60;;;27.10
65765;BMP180;52915;53.718;19.946;2023-08-06T17:26:51;98380.80;;;26.90
65765;BMP180;52915;53.718;19.946;2023-08-06T17:32:03;98381.00;;;26.60
65765;BMP180;52915;53.718;19.946;2023-08-06T17:37:07;98385.80;;;26.30
65765;BMP180;52915;53.718;19.946;2023-08-06T17:42:12;98386.80;;;26.02
65765;BMP180;52915;53.718;19.946;2023-08-06T17:47:16;98382.60;;;25.84
65765;BMP180;52915;53.718;19.946;2023-08-06T17:52:39;98388.60;;;25.70
65765;BMP180;52915;53.718;19.946;2023-08-06T17:57:43;98381.60;;;25.50
65765;BMP180;52915;53.718;19.946;2023-08-06T18:02:47;98391.60;;;25.40
65765;BMP180;52915;53.718;19.946;2023-08-06T18:07:51;98395.80;;;25.20
65765;BMP180;52915;53.718;19.946;2023-08-06T18:12:56;98389.40;;;25.00
65765;BMP180;52915;53.718;19.946;2023-08-06T18:18:00;98387.40;;;24.82
65765;BMP180;52915;53.718;19.946;2023-08-06T18:23:05;98396.40;;;24.62
65765;BMP180;52915;53.718;19.946;2023-08-06T18:28:10;98383.20;;;24.50
65765;BMP180;52915;53.718;19.946;2023-08-06T18:33:14;98385.00;;;24.34
65765;BMP180;52915;53.718;19.946;2023-08-06T18:38:19;98393.80;;;24.20
65765;BMP180;52915;53.718;19.946;2023-08-06T18:43:23;98405.60;;;24.00
65765;BMP180;52915;53.718;19.946;2023-08-06T18:48:28;98398.00;;;23.84
65765;BMP180;52915;53.718;19.946;2023-08-06T18:53:32;98406.60;;;23.70
65765;BMP180;52915;53.718;19.946;2023-08-06T18:58:37;98405.80;;;23.56
65765;BMP180;52915;53.718;19.946;2023-08-06T19:03:42;98401.80;;;23.40
65765;BMP180;52915;53.718;19.946;2023-08-06T19:08:46;98399.80;;;23.20
65765;BMP180;52915;53.718;19.946;2023-08-06T19:13:52;98420.00;;;22.90
65765;BMP180;52915;53.718;19.946;2023-08-06T19:19:22;98415.60;;;22.70
65765;BMP180;52915;53.718;19.946;2023-08-06T19:24:27;98425.80;;;22.56
65765;BMP180;52915;53.718;19.946;2023-08-06T19:29:32;98416.80;;;22.32
65765;BMP180;52915;53.718;19.946;2023-08-06T19:34:36;98408.00;;;22.10
65765;BMP180;52915;53.718;19.946;2023-08-06T19:39:40;98408.20;;;21.90
65765;BMP180;52915;53.718;19.946;2023-08-06T19:44:45;98411.40;;;21.80
65765;BMP180;52915;53.718;19.946;2023-08-06T19:49:49;98421.60;;;21.60
65765;BMP180;52915;53.718;19.946;2023-08-06T19:54:54;98412.20;;;21.46
65765;BMP180;52915;53.718;19.946;2023-08-06T19:59:58;98406.60;;;21.30
65765;BMP180;52915;53.718;19.946;2023-08-06T20:05:04;98396.60;;;21.18
65765;BMP180;52915;53.718;19.946;2023-08-06T20:10:09;98381.60;;;21.00
65765;BMP180;52915;53.718;19.946;2023-08-06T20:15:13;98363.60;;;20.90
65765;BMP180;52915;53.718;19.946;2023-08-06T20:20:18;98373.80;;;20.80
65765;BMP180;52915;53.718;19.946;2023-08-06T20:25:24;98383.00;;;20.60
65765;BMP180;52915;53.718;19.946;2023-08-06T20:30:30;98400.80;;;20.50
65765;BMP180;52915;53.718;19.946;2023-08-06T20:35:38;98394.60;;;20.40
65765;BMP180;52915;53.718;19.946;2023-08-06T20:40:43;98391.60;;;20.10
65765;BMP180;52915;53.718;19.946;2023-08-06T20:45:57;98400.20;;;20.00
65765;BMP180;52915;53.718;19.946;2023-08-06T20:51:07;98406.20;;;19.90
65765;BMP180;52915;53.718;19.946;2023-08-06T20:56:12;98409.00;;;19.90
65765;BMP180;52915;53.718;19.946;2023-08-06T21:01:20;98407.00;;;19.80
65765;BMP180;52915;53.718;19.946;2023-08-06T21:06:25;98414.00;;;19.80
65765;BMP180;52915;53.718;19.946;2023-08-06T21:11:29;98410.20;;;19.80
65765;BMP180;52915;53.718;19.946;2023-08-06T21:16:33;98421.00;;;19.70
65765;BMP180;52915;53.718;19.946;2023-08-06T21:21:37;98437.20;;;19.60
65765;BMP180;52915;53.718;19.946;2023-08-06T21:26:42;98429.60;;;19.60
65765;BMP180;52915;53.718;19.946;2023-08-06T21:31:46;98427.20;;;19.50
65765;BMP180;52915;53.718;19.946;2023-08-06T21:36:50;98436.60;;;19.40
65765;BMP180;52915;53.718;19.946;2023-08-06T21:41:54;98445.20;;;19.32
65765;BMP180;52915;53.718;19.946;2023-08-06T21:46:59;98443.60;;;19.20
65765;BMP180;52915;53.718;19.946;2023-08-06T21:52:05;98441.40;;;19.10
65765;BMP180;52915;53.718;19.946;2023-08-06T21:57:09;98449.80;;;19.00
65765;BMP180;52915;53.718;19.946;2023-08-06T22:02:13;98447.20;;;19.00
65765;BMP180;52915;53.718;19.946;2023-08-06T22:07:17;98422.20;;;18.94
65765;BMP180;52915;53.718;19.946;2023-08-06T22:12:22;98415.60;;;18.90
65765;BMP180;52915;53.718;19.946;2023-08-06T22:17:26;98421.60;;;18.90
65765;BMP180;52915;53.718;19.946;2023-08-06T22:22:30;98416.00;;;18.80
65765;BMP180;52915;53.718;19.946;2023-08-06T22:27:36;98419.80;;;18.70
65765;BMP180;52915;53.718;19.946;2023-08-06T22:32:40;98432.20;;;18.60
65765;BMP180;52915;53.718;19.946;2023-08-06T22:37:46;98425.80;;;18.50
65765;BMP180;52915;53.718;19.946;2023-08-06T22:42:51;98425.80;;;18.40
65765;BMP180;52915;53.718;19.946;2023-08-06T22:47:55;98450.00;;;18.30
65765;BMP180;52915;53.718;19.946;2023-08-06T22:52:59;98459.20;;;18.26
65765;BMP180;52915;53.718;19.946;2023-08-06T22:58:03;98465.20;;;18.20
65765;BMP180;52915;53.718;19.946;2023-08-06T23:03:08;98459.40;;;18.10
65765;BMP180;52915;53.718;19.946;2023-08-06T23:08:15;98461.60;;;18.10
65765;BMP180;52915;53.718;19.946;2023-08-06T23:13:19;98469.80;;;18.00
65765;BMP180;52915;53.718;19.946;2023-08-06T23:18:24;98477.20;;;17.80
65765;BMP180;52915;53.718;19.946;2023-08-06T23:23:28;98491.60;;;17.70
65765;BMP180;52915;53.718;19.946;2023-08-06T23:28:32;98487.80;;;17.50
65765;BMP180;52915;53.718;19.946;2023-08-06T23:33:38;98483.60;;;17.40
65765;BMP180;52915;53.718;19.946;2023-08-06T23:38:42;98481.00;;;17.30
65765;BMP180;52915;53.718;19.946;2023-08-06T23:43:46;98495.20;;;17.20
65765;BMP180;52915;53.718;19.946;2023-08-06T23:48:50;98497.60;;;17.10
65765;BMP180;52915;53.718;19.946;2023-08-06T23:53:55;98508.20;;;16.90
65765;BMP180;52915;53.718;19.946;2023-08-06T23:58:59;98507.00;;;16.70
